Greenmount, Maryland
Current Conditions -  °F | °C
As of 11:05 AM on Thursday 29 Jan 2015 (Local Time) from KDMW Reporting Station
Clear Clear  
Wind Chill: 20°   Ceiling: Unl
Heat Index: 28°   Visibility: 10mi
Dew Point:   Wind: 8mph
Humidity: 40%   Direction: 140°SE
Pressure: 30.2"   Gusts: NA
Location:  39.6206°N, 76.8429°W
Report Text: KDMW 291605Z AUTO 14007KT 10SM CLR M02/M14 A3020 RMK AO2
Loading
Personal Weather Stations






























Interactive Weather Map New forecast layout! Learn more

10-Day Weather Forecast

Advertisements
Track Severe Weather on mobile